This is the latest recevied weather packets stored in our database for station/object OH2TI. If no packets are shown the sender has not sent any weather packets the latest 1 day(s).
| Time | Temp. | Humidity | Pressure | Rain* | Wind** | Luminosity | Snow |
|---|---|---|---|---|---|---|---|
| 1778106214 | 5° C | 54% | 1011.2 hPa | - | - | - | - |
| 1778104392 | 5° C | 69% | 1011.1 hPa | - | - | - | - |
| 1778101429 | 5° C | 79% | 1010.9 hPa | - | - | - | - |
| 1778096652 | 6.67° C | 68% | 1010.8 hPa | - | - | - | - |
| 1778095819 | 6.67° C | 66% | 1010.6 hPa | - | - | - | - |
| 1778094444 | 6.67° C | 67% | 1010.6 hPa | - | - | - | - |
| 1778094079 | 7.22° C | 63% | 1010.6 hPa | - | - | - | - |
| 1778092639 | 7.22° C | 64% | 1010.6 hPa | - | - | - | - |
| 1778091722 | 7.78° C | 62% | 1010.6 hPa | - | - | - | - |
| 1778088679 | 8.89° C | 47% | 1010.5 hPa | - | - | - | - |
| 1778088079 | 9.44° C | 46% | 1010.5 hPa | - | - | - | - |
| 1778087229 | 9.44° C | 45% | 1010.5 hPa | - | - | - | - |
| 1778086579 | 9.44° C | 46% | 1010.4 hPa | - | - | - | - |
| 1778084089 | 9.44° C | 48% | 1010.4 hPa | - | - | - | - |
| 1778083744 | 9.44° C | 47% | 1010.4 hPa | - | - | - | - |
| 1778082882 | 10° C | 44% | 1010.3 hPa | - | - | - | - |
| 1778082464 | 10° C | 43% | 1010.4 hPa | - | - | - | - |
| 1778081734 | 10° C | 43% | 1010.4 hPa | - | - | - | - |
| 1778079182 | 8.89° C | 49% | 1010.6 hPa | - | - | - | - |
| 1778078719 | 8.89° C | 49% | 1010.6 hPa | - | - | - | - |
| 1778077879 | 9.44° C | 46% | 1010.6 hPa | - | - | - | - |
| 1778077359 | 9.44° C | 44% | 1010.6 hPa | - | - | - | - |
| 1778076479 | 10° C | 43% | 1010.4 hPa | - | - | - | - |
| 1778075384 | 10° C | 39% | 1010.5 hPa | - | - | - | - |
| 1778074939 | 10° C | 40% | 1010.5 hPa | - | - | - | - |
* Rain since midnight (hover to see other rain measurements)
** Current wind speed in m/s (hover to see current wind gust speed)